sensor_id;sensor_type;location;lat;lon;timestamp;temperature;humidity
14884;DHT22;7534;50.762;7.000;2023-12-29T00:00:43;9.70;74.00
14884;DHT22;7534;50.762;7.000;2023-12-29T00:03:09;9.70;73.90
14884;DHT22;7534;50.762;7.000;2023-12-29T00:05:35;9.60;74.30
14884;DHT22;7534;50.762;7.000;2023-12-29T00:08:01;9.50;74.70
14884;DHT22;7534;50.762;7.000;2023-12-29T00:10:27;9.60;74.50
14884;DHT22;7534;50.762;7.000;2023-12-29T00:12:54;9.60;74.50
14884;DHT22;7534;50.762;7.000;2023-12-29T00:15:19;9.60;74.50
14884;DHT22;7534;50.762;7.000;2023-12-29T00:17:45;9.60;74.40
14884;DHT22;7534;50.762;7.000;2023-12-29T00:20:12;9.70;74.20
14884;DHT22;7534;50.762;7.000;2023-12-29T00:22:38;9.60;74.30
14884;DHT22;7534;50.762;7.000;2023-12-29T00:25:04;9.60;74.50
14884;DHT22;7534;50.762;7.000;2023-12-29T00:27:30;9.60;74.40
14884;DHT22;7534;50.762;7.000;2023-12-29T00:29:56;9.70;74.10
14884;DHT22;7534;50.762;7.000;2023-12-29T00:32:22;9.70;74.30
14884;DHT22;7534;50.762;7.000;2023-12-29T00:34:47;9.80;73.80
14884;DHT22;7534;50.762;7.000;2023-12-29T00:37:13;9.70;74.00
14884;DHT22;7534;50.762;7.000;2023-12-29T00:39:39;9.60;74.20
14884;DHT22;7534;50.762;7.000;2023-12-29T00:42:05;9.60;74.20
14884;DHT22;7534;50.762;7.000;2023-12-29T00:44:32;9.60;74.40
14884;DHT22;7534;50.762;7.000;2023-12-29T00:46:58;9.40;75.00
14884;DHT22;7534;50.762;7.000;2023-12-29T00:49:24;9.30;75.40
14884;DHT22;7534;50.762;7.000;2023-12-29T00:51:50;9.30;75.50
14884;DHT22;7534;50.762;7.000;2023-12-29T00:54:15;9.30;75.50
14884;DHT22;7534;50.762;7.000;2023-12-29T00:56:41;9.30;75.20
14884;DHT22;7534;50.762;7.000;2023-12-29T00:59:07;9.30;75.40
14884;DHT22;7534;50.762;7.000;2023-12-29T01:01:34;9.20;75.50
14884;DHT22;7534;50.762;7.000;2023-12-29T01:04:01;9.20;75.40
14884;DHT22;7534;50.762;7.000;2023-12-29T01:06:26;9.20;75.50
14884;DHT22;7534;50.762;7.000;2023-12-29T01:08:52;9.20;75.70
14884;DHT22;7534;50.762;7.000;2023-12-29T01:11:18;9.30;75.20
14884;DHT22;7534;50.762;7.000;2023-12-29T01:13:44;9.40;74.80
14884;DHT22;7534;50.762;7.000;2023-12-29T01:16:09;9.40;74.60
14884;DHT22;7534;50.762;7.000;2023-12-29T01:18:35;9.40;74.60
14884;DHT22;7534;50.762;7.000;2023-12-29T01:21:01;9.40;74.80
14884;DHT22;7534;50.762;7.000;2023-12-29T01:23:27;9.50;74.70
14884;DHT22;7534;50.762;7.000;2023-12-29T01:25:53;9.60;74.20
14884;DHT22;7534;50.762;7.000;2023-12-29T01:28:18;9.70;74.00
14884;DHT22;7534;50.762;7.000;2023-12-29T01:30:44;9.70;73.70
14884;DHT22;7534;50.762;7.000;2023-12-29T01:33:10;9.80;73.70
14884;DHT22;7534;50.762;7.000;2023-12-29T01:35:35;9.80;73.50
14884;DHT22;7534;50.762;7.000;2023-12-29T01:38:02;9.90;73.90
14884;DHT22;7534;50.762;7.000;2023-12-29T01:40:28;9.90;73.90
14884;DHT22;7534;50.762;7.000;2023-12-29T01:42:54;10.00;73.70
14884;DHT22;7534;50.762;7.000;2023-12-29T01:45:21;10.00;73.20
14884;DHT22;7534;50.762;7.000;2023-12-29T01:47:49;10.00;73.10
14884;DHT22;7534;50.762;7.000;2023-12-29T01:50:18;10.10;72.60
14884;DHT22;7534;50.762;7.000;2023-12-29T01:52:46;10.10;72.70
14884;DHT22;7534;50.762;7.000;2023-12-29T01:55:17;10.10;72.60
14884;DHT22;7534;50.762;7.000;2023-12-29T01:57:45;10.10;73.00
14884;DHT22;7534;50.762;7.000;2023-12-29T02:00:12;10.20;72.70
14884;DHT22;7534;50.762;7.000;2023-12-29T02:02:39;10.30;72.50
14884;DHT22;7534;50.762;7.000;2023-12-29T02:05:05;10.30;72.40
14884;DHT22;7534;50.762;7.000;2023-12-29T02:07:32;10.30;72.40
14884;DHT22;7534;50.762;7.000;2023-12-29T02:09:58;10.40;72.10
14884;DHT22;7534;50.762;7.000;2023-12-29T02:12:25;10.40;72.00
14884;DHT22;7534;50.762;7.000;2023-12-29T02:14:51;10.40;71.80
14884;DHT22;7534;50.762;7.000;2023-12-29T02:17:21;10.50;71.70
14884;DHT22;7534;50.762;7.000;2023-12-29T02:19:51;10.40;71.90
14884;DHT22;7534;50.762;7.000;2023-12-29T02:22:18;10.40;72.10
14884;DHT22;7534;50.762;7.000;2023-12-29T02:24:48;10.40;72.30
14884;DHT22;7534;50.762;7.000;2023-12-29T02:30:29;10.40;72.40
14884;DHT22;7534;50.762;7.000;2023-12-29T02:33:01;10.40;71.90
14884;DHT22;7534;50.762;7.000;2023-12-29T02:35:43;10.50;71.60
14884;DHT22;7534;50.762;7.000;2023-12-29T02:38:09;10.40;72.00
14884;DHT22;7534;50.762;7.000;2023-12-29T02:40:36;10.40;71.90
14884;DHT22;7534;50.762;7.000;2023-12-29T02:43:02;10.40;72.20
14884;DHT22;7534;50.762;7.000;2023-12-29T02:45:28;10.30;72.60
14884;DHT22;7534;50.762;7.000;2023-12-29T02:47:54;10.40;72.40
14884;DHT22;7534;50.762;7.000;2023-12-29T02:50:19;10.40;72.50
14884;DHT22;7534;50.762;7.000;2023-12-29T02:52:45;10.40;72.20
14884;DHT22;7534;50.762;7.000;2023-12-29T02:55:12;10.40;72.40
14884;DHT22;7534;50.762;7.000;2023-12-29T02:57:38;10.40;72.60
14884;DHT22;7534;50.762;7.000;2023-12-29T03:00:05;10.50;72.20
14884;DHT22;7534;50.762;7.000;2023-12-29T03:02:31;10.40;72.40
14884;DHT22;7534;50.762;7.000;2023-12-29T03:04:58;10.40;72.30
14884;DHT22;7534;50.762;7.000;2023-12-29T03:07:24;10.40;72.60
14884;DHT22;7534;50.762;7.000;2023-12-29T03:09:49;10.40;72.20
14884;DHT22;7534;50.762;7.000;2023-12-29T03:12:15;10.50;72.00
14884;DHT22;7534;50.762;7.000;2023-12-29T03:14:41;10.40;72.30
14884;DHT22;7534;50.762;7.000;2023-12-29T03:17:06;10.30;72.30
14884;DHT22;7534;50.762;7.000;2023-12-29T03:19:32;10.20;72.70
14884;DHT22;7534;50.762;7.000;2023-12-29T03:21:58;10.10;73.00
14884;DHT22;7534;50.762;7.000;2023-12-29T03:24:24;10.10;73.00
14884;DHT22;7534;50.762;7.000;2023-12-29T03:26:50;10.00;73.40
14884;DHT22;7534;50.762;7.000;2023-12-29T03:29:15;10.10;73.10
14884;DHT22;7534;50.762;7.000;2023-12-29T03:31:41;10.20;73.10
14884;DHT22;7534;50.762;7.000;2023-12-29T03:34:07;10.30;72.60
14884;DHT22;7534;50.762;7.000;2023-12-29T03:36:33;10.40;72.50
14884;DHT22;7534;50.762;7.000;2023-12-29T03:38:59;10.50;71.90
14884;DHT22;7534;50.762;7.000;2023-12-29T03:41:27;10.50;72.00
14884;DHT22;7534;50.762;7.000;2023-12-29T03:43:53;10.60;71.50
14884;DHT22;7534;50.762;7.000;2023-12-29T03:46:22;10.60;71.90
14884;DHT22;7534;50.762;7.000;2023-12-29T03:48:48;10.70;71.60
14884;DHT22;7534;50.762;7.000;2023-12-29T03:51:15;10.70;71.70
14884;DHT22;7534;50.762;7.000;2023-12-29T03:53:41;10.70;71.50
14884;DHT22;7534;50.762;7.000;2023-12-29T03:56:18;10.70;71.50
14884;DHT22;7534;50.762;7.000;2023-12-29T03:58:44;10.80;71.20
14884;DHT22;7534;50.762;7.000;2023-12-29T04:01:14;10.90;71.10
14884;DHT22;7534;50.762;7.000;2023-12-29T04:03:41;10.90;71.10
14884;DHT22;7534;50.762;7.000;2023-12-29T04:06:07;10.90;71.20
14884;DHT22;7534;50.762;7.000;2023-12-29T04:08:34;10.90;71.50
14884;DHT22;7534;50.762;7.000;2023-12-29T04:11:00;10.80;71.60
14884;DHT22;7534;50.762;7.000;2023-12-29T04:13:26;10.70;71.70
14884;DHT22;7534;50.762;7.000;2023-12-29T04:15:52;10.60;72.30
14884;DHT22;7534;50.762;7.000;2023-12-29T04:18:22;10.60;72.50
14884;DHT22;7534;50.762;7.000;2023-12-29T04:20:48;10.50;72.90
14884;DHT22;7534;50.762;7.000;2023-12-29T04:23:14;10.40;73.20
14884;DHT22;7534;50.762;7.000;2023-12-29T04:25:40;10.50;73.20
14884;DHT22;7534;50.762;7.000;2023-12-29T04:28:07;10.40;73.30
14884;DHT22;7534;50.762;7.000;2023-12-29T04:30:33;10.40;73.40
14884;DHT22;7534;50.762;7.000;2023-12-29T04:32:59;10.30;73.90
14884;DHT22;7534;50.762;7.000;2023-12-29T04:35:25;10.30;74.10
14884;DHT22;7534;50.762;7.000;2023-12-29T04:37:51;10.20;74.80
14884;DHT22;7534;50.762;7.000;2023-12-29T04:40:17;10.10;75.00
14884;DHT22;7534;50.762;7.000;2023-12-29T04:42:43;10.10;75.10
14884;DHT22;7534;50.762;7.000;2023-12-29T04:45:09;10.10;75.40
14884;DHT22;7534;50.762;7.000;2023-12-29T04:47:36;10.10;75.70
14884;DHT22;7534;50.762;7.000;2023-12-29T04:50:01;10.20;75.30
14884;DHT22;7534;50.762;7.000;2023-12-29T04:52:27;10.30;74.70
14884;DHT22;7534;50.762;7.000;2023-12-29T04:54:53;10.30;74.90
14884;DHT22;7534;50.762;7.000;2023-12-29T04:57:19;10.30;74.90
14884;DHT22;7534;50.762;7.000;2023-12-29T04:59:45;10.40;74.60
14884;DHT22;7534;50.762;7.000;2023-12-29T05:02:10;10.50;74.40
14884;DHT22;7534;50.762;7.000;2023-12-29T05:04:36;10.50;74.30
14884;DHT22;7534;50.762;7.000;2023-12-29T05:07:05;10.60;74.30
14884;DHT22;7534;50.762;7.000;2023-12-29T05:09:31;10.60;74.40
14884;DHT22;7534;50.762;7.000;2023-12-29T05:11:56;10.60;74.20
14884;DHT22;7534;50.762;7.000;2023-12-29T05:14:22;10.60;74.30
14884;DHT22;7534;50.762;7.000;2023-12-29T05:16:48;10.60;74.40
14884;DHT22;7534;50.762;7.000;2023-12-29T05:19:13;10.60;74.50
14884;DHT22;7534;50.762;7.000;2023-12-29T05:21:39;10.70;74.70
14884;DHT22;7534;50.762;7.000;2023-12-29T05:24:05;10.70;74.70
14884;DHT22;7534;50.762;7.000;2023-12-29T05:26:34;10.70;74.80
14884;DHT22;7534;50.762;7.000;2023-12-29T05:28:59;10.70;74.70
14884;DHT22;7534;50.762;7.000;2023-12-29T05:31:25;10.70;74.80
14884;DHT22;7534;50.762;7.000;2023-12-29T05:33:51;10.60;75.00
14884;DHT22;7534;50.762;7.000;2023-12-29T05:36:16;10.70;74.90
14884;DHT22;7534;50.762;7.000;2023-12-29T05:38:45;10.60;75.30
14884;DHT22;7534;50.762;7.000;2023-12-29T05:41:13;10.60;75.30
14884;DHT22;7534;50.762;7.000;2023-12-29T05:43:39;10.60;75.50
14884;DHT22;7534;50.762;7.000;2023-12-29T05:46:12;10.60;75.70
14884;DHT22;7534;50.762;7.000;2023-12-29T05:48:38;10.60;75.40
14884;DHT22;7534;50.762;7.000;2023-12-29T05:51:09;10.50;75.70
14884;DHT22;7534;50.762;7.000;2023-12-29T05:53:36;10.50;76.00
14884;DHT22;7534;50.762;7.000;2023-12-29T05:56:02;10.50;75.80
14884;DHT22;7534;50.762;7.000;2023-12-29T05:58:28;10.50;75.70
14884;DHT22;7534;50.762;7.000;2023-12-29T06:00:57;10.50;75.60
14884;DHT22;7534;50.762;7.000;2023-12-29T06:03:24;10.40;76.00
14884;DHT22;7534;50.762;7.000;2023-12-29T06:05:49;10.40;76.00
14884;DHT22;7534;50.762;7.000;2023-12-29T06:08:15;10.30;76.30
14884;DHT22;7534;50.762;7.000;2023-12-29T06:10:41;10.30;76.70
14884;DHT22;7534;50.762;7.000;2023-12-29T06:13:07;10.40;76.10
14884;DHT22;7534;50.762;7.000;2023-12-29T06:15:32;10.40;76.00
14884;DHT22;7534;50.762;7.000;2023-12-29T06:17:58;10.40;75.70
14884;DHT22;7534;50.762;7.000;2023-12-29T06:20:24;10.50;75.40
14884;DHT22;7534;50.762;7.000;2023-12-29T06:22:50;10.40;75.60
14884;DHT22;7534;50.762;7.000;2023-12-29T06:25:16;10.30;76.00
14884;DHT22;7534;50.762;7.000;2023-12-29T06:27:41;10.30;76.00
14884;DHT22;7534;50.762;7.000;2023-12-29T06:30:08;10.40;75.80
14884;DHT22;7534;50.762;7.000;2023-12-29T06:32:34;10.30;75.90
14884;DHT22;7534;50.762;7.000;2023-12-29T06:35:00;10.20;76.30
14884;DHT22;7534;50.762;7.000;2023-12-29T06:37:25;10.20;76.40
14884;DHT22;7534;50.762;7.000;2023-12-29T06:39:51;10.10;76.50
14884;DHT22;7534;50.762;7.000;2023-12-29T06:42:17;10.10;76.60
14884;DHT22;7534;50.762;7.000;2023-12-29T06:44:43;10.10;76.90
14884;DHT22;7534;50.762;7.000;2023-12-29T06:47:08;10.00;77.10
14884;DHT22;7534;50.762;7.000;2023-12-29T06:49:34;10.00;77.00
14884;DHT22;7534;50.762;7.000;2023-12-29T06:52:00;10.00;76.90
14884;DHT22;7534;50.762;7.000;2023-12-29T06:54:26;10.00;77.00
14884;DHT22;7534;50.762;7.000;2023-12-29T06:56:53;9.90;77.30
14884;DHT22;7534;50.762;7.000;2023-12-29T06:59:19;9.90;77.50
14884;DHT22;7534;50.762;7.000;2023-12-29T07:01:46;9.90;77.60
14884;DHT22;7534;50.762;7.000;2023-12-29T07:04:12;9.80;77.70
14884;DHT22;7534;50.762;7.000;2023-12-29T07:06:39;9.90;77.70
14884;DHT22;7534;50.762;7.000;2023-12-29T07:09:05;9.80;77.70
14884;DHT22;7534;50.762;7.000;2023-12-29T07:11:30;9.90;77.70
14884;DHT22;7534;50.762;7.000;2023-12-29T07:13:56;9.90;77.70
14884;DHT22;7534;50.762;7.000;2023-12-29T07:16:22;9.80;78.00
14884;DHT22;7534;50.762;7.000;2023-12-29T07:18:48;9.80;77.90
14884;DHT22;7534;50.762;7.000;2023-12-29T07:21:14;9.80;78.10
14884;DHT22;7534;50.762;7.000;2023-12-29T07:23:41;9.80;78.40
14884;DHT22;7534;50.762;7.000;2023-12-29T07:26:07;9.80;78.50
14884;DHT22;7534;50.762;7.000;2023-12-29T07:28:33;9.70;78.60
14884;DHT22;7534;50.762;7.000;2023-12-29T07:30:59;9.60;79.20
14884;DHT22;7534;50.762;7.000;2023-12-29T07:33:25;9.50;79.70
14884;DHT22;7534;50.762;7.000;2023-12-29T07:35:51;9.50;80.00
14884;DHT22;7534;50.762;7.000;2023-12-29T07:38:17;9.60;79.90
14884;DHT22;7534;50.762;7.000;2023-12-29T07:40:43;9.60;80.10
14884;DHT22;7534;50.762;7.000;2023-12-29T07:43:09;9.60;79.90
14884;DHT22;7534;50.762;7.000;2023-12-29T07:45:34;9.70;79.70
14884;DHT22;7534;50.762;7.000;2023-12-29T07:48:02;9.80;79.20
14884;DHT22;7534;50.762;7.000;2023-12-29T07:50:29;9.80;78.90
14884;DHT22;7534;50.762;7.000;2023-12-29T07:52:55;9.80;78.90
14884;DHT22;7534;50.762;7.000;2023-12-29T07:55:20;9.80;79.10
14884;DHT22;7534;50.762;7.000;2023-12-29T07:57:46;9.80;79.10
14884;DHT22;7534;50.762;7.000;2023-12-29T08:00:14;9.90;78.80
14884;DHT22;7534;50.762;7.000;2023-12-29T08:02:40;10.00;78.60
14884;DHT22;7534;50.762;7.000;2023-12-29T08:05:06;10.10;78.20
14884;DHT22;7534;50.762;7.000;2023-12-29T08:07:37;10.10;77.90
14884;DHT22;7534;50.762;7.000;2023-12-29T08:10:06;10.20;77.60
14884;DHT22;7534;50.762;7.000;2023-12-29T08:12:33;10.30;77.20
14884;DHT22;7534;50.762;7.000;2023-12-29T08:15:00;10.30;76.90
14884;DHT22;7534;50.762;7.000;2023-12-29T08:17:26;10.30;76.90
14884;DHT22;7534;50.762;7.000;2023-12-29T08:19:52;10.40;76.50
14884;DHT22;7534;50.762;7.000;2023-12-29T08:22:19;10.50;76.10
14884;DHT22;7534;50.762;7.000;2023-12-29T08:24:45;10.50;76.10
14884;DHT22;7534;50.762;7.000;2023-12-29T08:27:14;10.60;75.70
14884;DHT22;7534;50.762;7.000;2023-12-29T08:29:40;10.70;75.50
14884;DHT22;7534;50.762;7.000;2023-12-29T08:32:07;10.70;75.40
14884;DHT22;7534;50.762;7.000;2023-12-29T08:34:32;10.70;75.30
14884;DHT22;7534;50.762;7.000;2023-12-29T08:37:00;10.80;75.10
14884;DHT22;7534;50.762;7.000;2023-12-29T08:39:25;10.90;75.00
14884;DHT22;7534;50.762;7.000;2023-12-29T08:41:52;10.90;74.90
14884;DHT22;7534;50.762;7.000;2023-12-29T08:44:19;11.00;75.00
14884;DHT22;7534;50.762;7.000;2023-12-29T08:46:45;11.00;74.90
14884;DHT22;7534;50.762;7.000;2023-12-29T08:49:10;11.10;75.00
14884;DHT22;7534;50.762;7.000;2023-12-29T08:51:36;11.10;74.70
14884;DHT22;7534;50.762;7.000;2023-12-29T08:54:02;11.10;74.90
14884;DHT22;7534;50.762;7.000;2023-12-29T08:56:28;11.10;74.60
14884;DHT22;7534;50.762;7.000;2023-12-29T08:58:54;11.20;74.60
14884;DHT22;7534;50.762;7.000;2023-12-29T09:01:20;11.20;74.70
14884;DHT22;7534;50.762;7.000;2023-12-29T09:03:46;11.20;74.50
14884;DHT22;7534;50.762;7.000;2023-12-29T09:06:12;11.10;74.80
14884;DHT22;7534;50.762;7.000;2023-12-29T09:08:37;11.20;74.60
14884;DHT22;7534;50.762;7.000;2023-12-29T09:11:04;11.30;74.30
14884;DHT22;7534;50.762;7.000;2023-12-29T09:13:29;11.30;74.40
14884;DHT22;7534;50.762;7.000;2023-12-29T09:15:55;11.40;74.50
14884;DHT22;7534;50.762;7.000;2023-12-29T09:18:21;11.50;73.70
14884;DHT22;7534;50.762;7.000;2023-12-29T09:20:47;11.60;73.40
14884;DHT22;7534;50.762;7.000;2023-12-29T09:23:13;11.70;73.20
14884;DHT22;7534;50.762;7.000;2023-12-29T09:25:40;11.90;72.70
14884;DHT22;7534;50.762;7.000;2023-12-29T09:28:07;12.00;72.40
14884;DHT22;7534;50.762;7.000;2023-12-29T09:30:33;12.00;72.20
14884;DHT22;7534;50.762;7.000;2023-12-29T09:32:58;11.90;72.30
14884;DHT22;7534;50.762;7.000;2023-12-29T09:35:24;11.80;74.40
14884;DHT22;7534;50.762;7.000;2023-12-29T09:37:50;11.70;75.10
14884;DHT22;7534;50.762;7.000;2023-12-29T09:40:16;11.60;76.40
14884;DHT22;7534;50.762;7.000;2023-12-29T09:42:46;11.60;75.90
14884;DHT22;7534;50.762;7.000;2023-12-29T09:45:13;11.60;76.60
14884;DHT22;7534;50.762;7.000;2023-12-29T09:47:42;11.70;76.70
14884;DHT22;7534;50.762;7.000;2023-12-29T09:50:12;11.70;75.80
14884;DHT22;7534;50.762;7.000;2023-12-29T09:52:42;11.70;75.70
14884;DHT22;7534;50.762;7.000;2023-12-29T09:55:10;11.80;74.80
14884;DHT22;7534;50.762;7.000;2023-12-29T09:57:40;11.80;74.40
14884;DHT22;7534;50.762;7.000;2023-12-29T10:00:10;11.70;74.50
14884;DHT22;7534;50.762;7.000;2023-12-29T10:02:37;11.60;74.60
14884;DHT22;7534;50.762;7.000;2023-12-29T10:05:04;11.60;74.60
14884;DHT22;7534;50.762;7.000;2023-12-29T10:07:35;11.60;74.50
14884;DHT22;7534;50.762;7.000;2023-12-29T10:10:04;11.60;74.10
14884;DHT22;7534;50.762;7.000;2023-12-29T10:12:32;11.60;74.50
14884;DHT22;7534;50.762;7.000;2023-12-29T10:17:59;11.80;74.00
14884;DHT22;7534;50.762;7.000;2023-12-29T10:23:06;11.80;74.40
14884;DHT22;7534;50.762;7.000;2023-12-29T10:25:34;11.90;73.80
14884;DHT22;7534;50.762;7.000;2023-12-29T10:28:01;11.80;73.80
14884;DHT22;7534;50.762;7.000;2023-12-29T10:30:28;11.80;74.10
14884;DHT22;7534;50.762;7.000;2023-12-29T10:32:55;11.80;73.30
14884;DHT22;7534;50.762;7.000;2023-12-29T10:35:21;11.80;73.50
14884;DHT22;7534;50.762;7.000;2023-12-29T10:37:47;12.00;73.20
14884;DHT22;7534;50.762;7.000;2023-12-29T10:40:19;12.10;72.40
14884;DHT22;7534;50.762;7.000;2023-12-29T10:42:52;12.20;72.40
14884;DHT22;7534;50.762;7.000;2023-12-29T10:45:22;12.40;71.70
14884;DHT22;7534;50.762;7.000;2023-12-29T10:47:50;12.50;70.80
14884;DHT22;7534;50.762;7.000;2023-12-29T10:50:16;12.70;70.60
14884;DHT22;7534;50.762;7.000;2023-12-29T10:52:42;12.70;70.10
14884;DHT22;7534;50.762;7.000;2023-12-29T10:55:12;13.00;69.70
14884;DHT22;7534;50.762;7.000;2023-12-29T10:57:38;13.20;67.90
14884;DHT22;7534;50.762;7.000;2023-12-29T11:00:06;13.20;68.20
14884;DHT22;7534;50.762;7.000;2023-12-29T11:02:33;13.10;69.00
14884;DHT22;7534;50.762;7.000;2023-12-29T11:05:07;13.00;69.00
14884;DHT22;7534;50.762;7.000;2023-12-29T11:07:39;13.00;69.10
14884;DHT22;7534;50.762;7.000;2023-12-29T11:10:07;12.80;69.50
14884;DHT22;7534;50.762;7.000;2023-12-29T11:12:36;12.80;69.50
14884;DHT22;7534;50.762;7.000;2023-12-29T11:15:06;12.60;70.30
14884;DHT22;7534;50.762;7.000;2023-12-29T11:17:35;12.60;70.30
14884;DHT22;7534;50.762;7.000;2023-12-29T11:20:04;12.60;70.70
14884;DHT22;7534;50.762;7.000;2023-12-29T11:22:31;12.60;70.30
14884;DHT22;7534;50.762;7.000;2023-12-29T11:24:58;12.60;70.30
14884;DHT22;7534;50.762;7.000;2023-12-29T11:27:29;12.60;70.50
14884;DHT22;7534;50.762;7.000;2023-12-29T11:30:00;12.70;70.00
14884;DHT22;7534;50.762;7.000;2023-12-29T11:35:34;12.80;69.30
14884;DHT22;7534;50.762;7.000;2023-12-29T11:38:41;12.80;69.00
14884;DHT22;7534;50.762;7.000;2023-12-29T11:44:01;12.80;69.70
14884;DHT22;7534;50.762;7.000;2023-12-29T11:46:40;12.70;69.80
14884;DHT22;7534;50.762;7.000;2023-12-29T11:49:09;12.70;69.60
14884;DHT22;7534;50.762;7.000;2023-12-29T11:51:37;12.80;69.30
14884;DHT22;7534;50.762;7.000;2023-12-29T11:54:05;12.90;69.60
14884;DHT22;7534;50.762;7.000;2023-12-29T11:56:39;13.10;68.90
14884;DHT22;7534;50.762;7.000;2023-12-29T12:01:52;13.30;68.80
14884;DHT22;7534;50.762;7.000;2023-12-29T12:04:41;13.30;67.70
14884;DHT22;7534;50.762;7.000;2023-12-29T12:07:15;13.30;67.20
14884;DHT22;7534;50.762;7.000;2023-12-29T12:09:42;13.20;67.40
14884;DHT22;7534;50.762;7.000;2023-12-29T12:12:09;13.30;67.70
14884;DHT22;7534;50.762;7.000;2023-12-29T12:14:50;13.30;67.80
14884;DHT22;7534;50.762;7.000;2023-12-29T12:17:33;13.30;67.60
14884;DHT22;7534;50.762;7.000;2023-12-29T12:20:07;13.50;67.80
14884;DHT22;7534;50.762;7.000;2023-12-29T12:22:37;13.60;66.50
14884;DHT22;7534;50.762;7.000;2023-12-29T12:25:03;13.60;65.60
14884;DHT22;7534;50.762;7.000;2023-12-29T12:27:30;13.60;66.20
14884;DHT22;7534;50.762;7.000;2023-12-29T12:29:58;13.70;66.30
14884;DHT22;7534;50.762;7.000;2023-12-29T12:32:29;13.90;65.50
14884;DHT22;7534;50.762;7.000;2023-12-29T12:34:56;14.00;64.70
14884;DHT22;7534;50.762;7.000;2023-12-29T12:37:26;14.00;65.10
14884;DHT22;7534;50.762;7.000;2023-12-29T12:39:53;14.10;65.20
14884;DHT22;7534;50.762;7.000;2023-12-29T12:42:20;14.40;65.10
14884;DHT22;7534;50.762;7.000;2023-12-29T12:44:55;14.60;63.90
14884;DHT22;7534;50.762;7.000;2023-12-29T12:47:32;14.60;63.40
14884;DHT22;7534;50.762;7.000;2023-12-29T12:50:00;14.40;63.80
14884;DHT22;7534;50.762;7.000;2023-12-29T12:52:31;14.20;64.70
14884;DHT22;7534;50.762;7.000;2023-12-29T12:54:57;14.10;64.80
14884;DHT22;7534;50.762;7.000;2023-12-29T12:57:23;13.90;65.40
14884;DHT22;7534;50.762;7.000;2023-12-29T12:59:50;13.70;65.80
14884;DHT22;7534;50.762;7.000;2023-12-29T13:02:18;13.40;66.50
14884;DHT22;7534;50.762;7.000;2023-12-29T13:04:45;13.30;67.00
14884;DHT22;7534;50.762;7.000;2023-12-29T13:07:15;13.30;67.00
14884;DHT22;7534;50.762;7.000;2023-12-29T13:09:41;13.20;67.20
14884;DHT22;7534;50.762;7.000;2023-12-29T13:12:11;13.10;67.60
14884;DHT22;7534;50.762;7.000;2023-12-29T13:14:38;13.00;68.00
14884;DHT22;7534;50.762;7.000;2023-12-29T13:17:12;12.90;68.70
14884;DHT22;7534;50.762;7.000;2023-12-29T13:19:40;12.90;69.50
14884;DHT22;7534;50.762;7.000;2023-12-29T13:22:11;12.90;69.20
14884;DHT22;7534;50.762;7.000;2023-12-29T13:24:46;12.80;69.10
14884;DHT22;7534;50.762;7.000;2023-12-29T13:27:13;12.80;69.10
14884;DHT22;7534;50.762;7.000;2023-12-29T13:29:40;12.80;69.50
14884;DHT22;7534;50.762;7.000;2023-12-29T13:32:22;12.80;69.40
14884;DHT22;7534;50.762;7.000;2023-12-29T13:37:46;12.80;69.50
14884;DHT22;7534;50.762;7.000;2023-12-29T13:40:26;12.80;69.50
14884;DHT22;7534;50.762;7.000;2023-12-29T13:42:58;12.70;70.00
14884;DHT22;7534;50.762;7.000;2023-12-29T13:45:26;12.70;70.20
14884;DHT22;7534;50.762;7.000;2023-12-29T13:47:53;12.70;70.30
14884;DHT22;7534;50.762;7.000;2023-12-29T13:50:21;12.70;69.80
14884;DHT22;7534;50.762;7.000;2023-12-29T13:52:47;12.80;69.70
14884;DHT22;7534;50.762;7.000;2023-12-29T13:55:21;12.60;70.20
14884;DHT22;7534;50.762;7.000;2023-12-29T13:57:50;12.60;70.80
14884;DHT22;7534;50.762;7.000;2023-12-29T14:00:18;12.50;71.00
14884;DHT22;7534;50.762;7.000;2023-12-29T14:02:58;12.40;71.60
14884;DHT22;7534;50.762;7.000;2023-12-29T14:05:32;12.30;73.10
14884;DHT22;7534;50.762;7.000;2023-12-29T14:08:41;12.20;74.20
14884;DHT22;7534;50.762;7.000;2023-12-29T14:11:10;12.00;75.50
14884;DHT22;7534;50.762;7.000;2023-12-29T14:13:46;11.90;76.80
14884;DHT22;7534;50.762;7.000;2023-12-29T14:16:13;11.80;77.90
14884;DHT22;7534;50.762;7.000;2023-12-29T14:21:29;11.60;77.60
14884;DHT22;7534;50.762;7.000;2023-12-29T14:24:15;11.60;78.80
14884;DHT22;7534;50.762;7.000;2023-12-29T14:27:01;11.50;78.40
14884;DHT22;7534;50.762;7.000;2023-12-29T14:29:28;11.60;77.60
14884;DHT22;7534;50.762;7.000;2023-12-29T14:31:54;11.50;77.90
14884;DHT22;7534;50.762;7.000;2023-12-29T14:34:21;11.50;77.30
14884;DHT22;7534;50.762;7.000;2023-12-29T14:36:47;11.60;77.10
14884;DHT22;7534;50.762;7.000;2023-12-29T14:39:13;11.60;76.70
14884;DHT22;7534;50.762;7.000;2023-12-29T14:41:41;11.60;76.80
14884;DHT22;7534;50.762;7.000;2023-12-29T14:44:07;11.60;76.80
14884;DHT22;7534;50.762;7.000;2023-12-29T14:46:34;11.60;76.50
14884;DHT22;7534;50.762;7.000;2023-12-29T14:49:02;11.60;76.60
14884;DHT22;7534;50.762;7.000;2023-12-29T14:51:28;11.60;76.50
14884;DHT22;7534;50.762;7.000;2023-12-29T14:53:53;11.60;76.00
14884;DHT22;7534;50.762;7.000;2023-12-29T14:56:19;11.60;76.30
14884;DHT22;7534;50.762;7.000;2023-12-29T14:58:45;11.60;76.60
14884;DHT22;7534;50.762;7.000;2023-12-29T15:01:12;11.50;76.70
14884;DHT22;7534;50.762;7.000;2023-12-29T15:03:37;11.50;76.70
14884;DHT22;7534;50.762;7.000;2023-12-29T15:06:04;11.50;77.20
14884;DHT22;7534;50.762;7.000;2023-12-29T15:08:30;11.50;77.00
14884;DHT22;7534;50.762;7.000;2023-12-29T15:11:01;11.40;77.00
14884;DHT22;7534;50.762;7.000;2023-12-29T15:13:28;11.50;77.10
14884;DHT22;7534;50.762;7.000;2023-12-29T15:15:56;11.40;78.10
14884;DHT22;7534;50.762;7.000;2023-12-29T15:18:23;11.30;78.10
14884;DHT22;7534;50.762;7.000;2023-12-29T15:20:49;11.30;77.80
14884;DHT22;7534;50.762;7.000;2023-12-29T15:23:14;11.20;78.60
14884;DHT22;7534;50.762;7.000;2023-12-29T15:25:41;11.20;79.00
14884;DHT22;7534;50.762;7.000;2023-12-29T15:28:08;11.30;78.10
14884;DHT22;7534;50.762;7.000;2023-12-29T15:30:35;11.30;77.90
14884;DHT22;7534;50.762;7.000;2023-12-29T15:33:01;11.30;78.00
14884;DHT22;7534;50.762;7.000;2023-12-29T15:35:27;11.30;78.00
14884;DHT22;7534;50.762;7.000;2023-12-29T15:37:54;11.30;77.90
14884;DHT22;7534;50.762;7.000;2023-12-29T15:40:21;11.30;78.30
14884;DHT22;7534;50.762;7.000;2023-12-29T15:42:48;11.30;78.20
14884;DHT22;7534;50.762;7.000;2023-12-29T15:45:15;11.30;77.70
14884;DHT22;7534;50.762;7.000;2023-12-29T15:47:44;11.30;77.80
14884;DHT22;7534;50.762;7.000;2023-12-29T15:50:10;11.30;78.00
14884;DHT22;7534;50.762;7.000;2023-12-29T15:52:35;11.30;77.90
14884;DHT22;7534;50.762;7.000;2023-12-29T15:55:01;11.30;77.60
14884;DHT22;7534;50.762;7.000;2023-12-29T15:57:27;11.30;78.40
14884;DHT22;7534;50.762;7.000;2023-12-29T15:59:53;11.20;77.80
14884;DHT22;7534;50.762;7.000;2023-12-29T16:02:18;11.20;78.20
14884;DHT22;7534;50.762;7.000;2023-12-29T16:04:44;11.20;78.00
14884;DHT22;7534;50.762;7.000;2023-12-29T16:07:10;11.20;78.10
14884;DHT22;7534;50.762;7.000;2023-12-29T16:09:35;11.20;78.00
14884;DHT22;7534;50.762;7.000;2023-12-29T16:12:01;11.20;77.90
14884;DHT22;7534;50.762;7.000;2023-12-29T16:14:27;11.10;78.30